Pagina principale
METAR-TAF:

METAR-TAF

Aeroporti :

Dübendorf, Svizzera

latitudine: 47-23-55N, longitudine: 8-38-53E, altezza: 448 m

Osservazione

Il bollettino è stato emesso 18 minuti fa, alle 00:50 UTC
Vento 14 kt da ovest/nord-ovest con raffiche fino a 28 kt, variando fra ovest e nord-ovest
Temperature 5°C
Umidità 81%
Pressione 1000 hPa
Visibilità 10 km o più
Poco nuvoloso ad un'altezza di 3000 ft
Nuvoloso ad un'altezza di 3500 ft
Nuvoloso ad un'altezza di 8100 ft
rovesci di pioggia

METAR: LSMD 170050Z AUTO 29014G28KT 260V320 9999NDV -SHRA FEW030 BKN035 BKN081 05/02 Q1000 RMK

Ora: 02:08 (01:08 UTC)


TAF: mancante

Osservazioni e previsioni meteorologiche di più di 4000 aeroporti (messaggi METAR e TAF).

Le stazioni disponibili sono rappresentate dai dischi gialli e rossi sulla carta.

Puntare il mouse per vedere il nome della stazione.

Clicca sopra per visualizzare le osservazioni e previsioni meteorologiche.

Per cambiare la mappa : fare clic sui pulsanti verdi con una croce nera per ingrandire, il pulsante verde con un trattino per diminuire, o sulla freccia verde per le mappe adiacenti.


METAR-TAF: